Time,TemperatureF,DewpointF,PressureIn,WindDirection,WindDirectionDegrees,WindSpeedMPH,WindSpeedGustMPH,Humidity,HourlyPrecipIn,Conditions,Clouds,dailyrainin,SoftwareType,DateUTC
2013-02-02 00:00:00,19.3,6.2,30.33,West,266,0.0,0.0,56,0.00,,---,0.00,VWS V14.01,2013-02-02 05:00:00,
2013-02-02 00:05:00,19.2,6.9,30.33,West,266,0.0,1.0,58,0.00,,---,0.00,VWS V14.01,2013-02-02 05:05:00,
2013-02-02 00:10:00,19.1,7.5,30.33,West,266,0.0,1.0,60,0.00,,---,0.00,VWS V14.01,2013-02-02 05:10:00,
2013-02-02 00:15:00,18.9,7.3,30.33,West,266,1.0,2.0,60,0.00,,---,0.00,VWS V14.01,2013-02-02 05:15:00,
2013-02-02 00:20:00,18.7,7.9,30.33,West,266,0.0,2.0,62,0.00,,---,0.00,VWS V14.01,2013-02-02 05:20:00,
2013-02-02 00:25:00,18.6,7.0,30.33,West,266,0.0,0.0,60,0.00,,---,0.00,VWS V14.01,2013-02-02 05:25:00,
2013-02-02 00:30:00,18.6,6.7,30.33,West,266,0.0,0.0,59,0.00,,---,0.00,VWS V14.01,2013-02-02 05:30:00,
2013-02-02 00:35:00,18.6,7.0,30.33,West,266,0.0,0.0,60,0.00,,---,0.00,VWS V14.01,2013-02-02 05:35:00,
2013-02-02 00:40:00,18.6,7.0,30.33,West,266,0.0,0.0,60,0.00,,---,0.00,VWS V14.01,2013-02-02 05:40:00,
2013-02-02 00:45:00,18.5,6.6,30.33,West,266,0.0,0.0,59,0.00,,---,0.00,VWS V14.01,2013-02-02 05:45:00,
2013-02-02 00:50:00,18.5,7.7,30.33,West,266,0.0,0.0,62,0.00,,---,0.00,VWS V14.01,2013-02-02 05:50:00,
2013-02-02 00:55:00,18.4,7.2,30.33,West,266,0.0,0.0,61,0.00,,---,0.00,VWS V14.01,2013-02-02 05:55:00,
2013-02-02 01:00:00,18.2,7.4,30.33,West,266,0.0,0.0,62,0.00,,---,0.00,VWS V14.01,2013-02-02 06:00:00,
2013-02-02 01:05:00,18.1,6.9,30.32,West,266,0.0,0.0,61,0.00,,---,0.00,VWS V14.01,2013-02-02 06:05:00,
2013-02-02 01:10:00,18.0,7.5,30.32,West,266,0.0,0.0,63,0.00,,---,0.00,VWS V14.01,2013-02-02 06:10:00,
2013-02-02 01:15:00,17.7,9.3,30.33,West,266,1.0,3.0,69,0.00,,---,0.00,VWS V14.01,2013-02-02 06:15:00,
2013-02-02 01:20:00,17.5,9.4,30.32,West,266,0.0,1.0,70,0.00,,---,0.00,VWS V14.01,2013-02-02 06:20:00,
2013-02-02 01:25:00,17.3,9.2,30.33,West,266,0.0,0.0,70,0.00,,---,0.00,VWS V14.01,2013-02-02 06:25:00,
2013-02-02 01:30:00,17.2,9.1,30.32,West,266,0.0,0.0,70,0.00,,---,0.00,VWS V14.01,2013-02-02 06:30:00,
2013-02-02 01:35:00,17.1,9.0,30.32,West,266,0.0,0.0,70,0.00,,---,0.00,VWS V14.01,2013-02-02 06:35:00,
2013-02-02 01:40:00,17.1,9.6,30.32,West,266,0.0,0.0,72,0.00,,---,0.00,VWS V14.01,2013-02-02 06:40:00,
2013-02-02 01:45:00,17.0,9.9,30.32,West,266,0.0,1.0,73,0.00,,---,0.00,VWS V14.01,2013-02-02 06:45:00,
2013-02-02 01:50:00,17.0,9.9,30.32,West,266,0.0,1.0,73,0.00,,---,0.00,VWS V14.01,2013-02-02 06:50:00,
2013-02-02 01:55:00,17.0,9.6,30.32,West,266,0.0,0.0,72,0.00,,---,0.00,VWS V14.01,2013-02-02 06:55:00,
2013-02-02 02:00:00,17.0,9.9,30.32,West,266,0.0,0.0,73,0.00,,---,0.00,VWS V14.01,2013-02-02 07:00:00,
2013-02-02 02:05:00,17.0,10.5,30.32,West,266,0.0,0.0,75,0.00,,---,0.00,VWS V14.01,2013-02-02 07:05:00,
2013-02-02 02:10:00,16.9,10.7,30.32,West,266,0.0,0.0,76,0.00,,---,0.00,VWS V14.01,2013-02-02 07:10:00,
2013-02-02 02:15:00,16.8,10.9,30.32,West,266,0.0,0.0,77,0.00,,---,0.00,VWS V14.01,2013-02-02 07:15:00,
2013-02-02 02:20:00,16.5,10.9,30.31,West,266,0.0,1.0,78,0.00,,---,0.00,VWS V14.01,2013-02-02 07:20:00,
2013-02-02 02:25:00,16.2,10.8,30.31,West,266,0.0,0.0,79,0.00,,---,0.00,VWS V14.01,2013-02-02 07:25:00,
2013-02-02 02:30:00,16.0,10.1,30.32,West,266,0.0,0.0,77,0.00,,---,0.00,VWS V14.01,2013-02-02 07:30:00,
2013-02-02 02:35:00,15.8,9.6,30.31,West,266,0.0,0.0,76,0.00,,---,0.00,VWS V14.01,2013-02-02 07:35:00,
2013-02-02 02:40:00,15.8,9.6,30.32,West,266,0.0,0.0,76,0.00,,---,0.00,VWS V14.01,2013-02-02 07:40:00,
2013-02-02 02:45:00,15.8,9.9,30.32,West,266,0.0,0.0,77,0.00,,---,0.00,VWS V14.01,2013-02-02 07:45:00,
2013-02-02 02:50:00,15.8,10.7,30.32,West,266,0.0,0.0,80,0.00,,---,0.00,VWS V14.01,2013-02-02 07:50:00,
2013-02-02 02:55:00,15.9,10.8,30.31,West,266,1.0,2.0,80,0.00,,---,0.00,VWS V14.01,2013-02-02 07:55:00,
2013-02-02 03:00:00,15.8,10.7,30.31,West,266,0.0,1.0,80,0.00,,---,0.00,VWS V14.01,2013-02-02 08:00:00,
2013-02-02 03:05:00,15.8,10.2,30.31,West,266,0.0,2.0,78,0.00,,---,0.00,VWS V14.01,2013-02-02 08:05:00,
2013-02-02 03:10:00,15.8,10.2,30.31,West,266,0.0,1.0,78,0.00,,---,0.00,VWS V14.01,2013-02-02 08:10:00,
2013-02-02 03:15:00,15.9,11.1,30.31,West,266,1.0,1.0,81,0.00,,---,0.00,VWS V14.01,2013-02-02 08:15:00,
2013-02-02 03:20:00,16.1,11.6,30.30,West,266,1.0,2.0,82,0.00,,---,0.00,VWS V14.01,2013-02-02 08:20:00,
2013-02-02 03:25:00,16.1,11.6,30.30,West,266,0.0,1.0,82,0.00,,---,0.00,VWS V14.01,2013-02-02 08:25:00,
2013-02-02 03:30:00,16.0,11.5,30.30,West,266,0.0,1.0,82,0.00,,---,0.00,VWS V14.01,2013-02-02 08:30:00,
2013-02-02 03:35:00,16.0,11.5,30.30,West,266,0.0,0.0,82,0.00,,---,0.00,VWS V14.01,2013-02-02 08:35:00,
2013-02-02 03:40:00,16.0,11.5,30.30,West,266,0.0,0.0,82,0.00,,---,0.00,VWS V14.01,2013-02-02 08:40:00,
2013-02-02 03:45:00,16.1,11.6,30.31,West,266,0.0,1.0,82,0.00,,---,0.00,VWS V14.01,2013-02-02 08:45:00,
2013-02-02 03:50:00,16.2,11.7,30.31,West,266,0.0,2.0,82,0.00,,---,0.00,VWS V14.01,2013-02-02 08:50:00,
2013-02-02 03:55:00,16.3,11.8,30.30,West,266,0.0,0.0,82,0.00,,---,0.00,VWS V14.01,2013-02-02 08:55:00,
2013-02-02 04:00:00,16.4,11.9,30.30,West,266,0.0,1.0,82,0.00,,---,0.00,VWS V14.01,2013-02-02 09:00:00,
2013-02-02 04:05:00,16.5,12.0,30.30,West,266,0.0,0.0,82,0.00,,---,0.00,VWS V14.01,2013-02-02 09:05:00,
2013-02-02 04:10:00,16.6,12.1,30.30,West,266,0.0,0.0,82,0.00,,---,0.00,VWS V14.01,2013-02-02 09:10:00,
2013-02-02 04:15:00,16.6,12.1,30.30,West,266,0.0,0.0,82,0.00,,---,0.00,VWS V14.01,2013-02-02 09:15:00,
2013-02-02 04:20:00,16.7,11.9,30.30,West,266,0.0,0.0,81,0.00,,---,0.00,VWS V14.01,2013-02-02 09:20:00,
2013-02-02 04:25:00,16.8,12.3,30.30,West,266,0.0,0.0,82,0.00,,---,0.00,VWS V14.01,2013-02-02 09:25:00,
2013-02-02 04:30:00,16.8,12.0,30.30,West,266,0.0,0.0,81,0.00,,---,0.00,VWS V14.01,2013-02-02 09:30:00,
2013-02-02 04:35:00,16.9,12.4,30.31,West,266,0.0,0.0,82,0.00,,---,0.00,VWS V14.01,2013-02-02 09:35:00,
2013-02-02 04:40:00,17.0,12.5,30.31,West,266,0.0,0.0,82,0.00,,---,0.00,VWS V14.01,2013-02-02 09:40:00,
2013-02-02 04:45:00,17.0,11.9,30.30,West,266,0.0,0.0,80,0.00,,---,0.00,VWS V14.01,2013-02-02 09:45:00,
2013-02-02 04:50:00,17.0,12.2,30.30,West,266,0.0,0.0,81,0.00,,---,0.00,VWS V14.01,2013-02-02 09:50:00,
2013-02-02 04:55:00,17.0,12.5,30.30,West,266,0.0,2.0,82,0.00,,---,0.00,VWS V14.01,2013-02-02 09:55:00,
2013-02-02 05:00:00,17.0,12.2,30.30,West,266,0.0,2.0,81,0.00,,---,0.00,VWS V14.01,2013-02-02 10:00:00,
2013-02-02 05:05:00,16.9,12.4,30.30,West,266,0.0,3.0,82,0.00,,---,0.00,VWS V14.01,2013-02-02 10:05:00,
2013-02-02 05:10:00,16.8,12.3,30.30,West,266,1.0,2.0,82,0.00,,---,0.00,VWS V14.01,2013-02-02 10:10:00,
2013-02-02 05:15:00,16.8,12.0,30.30,West,266,0.0,2.0,81,0.00,,---,0.00,VWS V14.01,2013-02-02 10:15:00,
2013-02-02 05:20:00,16.7,11.9,30.30,West,266,0.0,1.0,81,0.00,,---,0.00,VWS V14.01,2013-02-02 10:20:00,
2013-02-02 05:25:00,16.6,11.8,30.30,West,266,0.0,0.0,81,0.00,,---,0.00,VWS V14.01,2013-02-02 10:25:00,
2013-02-02 05:30:00,16.5,11.7,30.30,West,266,0.0,0.0,81,0.00,,---,0.00,VWS V14.01,2013-02-02 10:30:00,
2013-02-02 05:35:00,16.4,11.9,30.30,West,266,0.0,0.0,82,0.00,,---,0.00,VWS V14.01,2013-02-02 10:35:00,
2013-02-02 05:40:00,16.3,12.1,30.30,West,266,0.0,0.0,83,0.00,,---,0.00,VWS V14.01,2013-02-02 10:40:00,
2013-02-02 05:45:00,16.3,12.1,30.30,West,266,0.0,0.0,83,0.00,,---,0.00,VWS V14.01,2013-02-02 10:45:00,
2013-02-02 05:50:00,16.2,12.0,30.30,West,266,0.0,0.0,83,0.00,,---,0.00,VWS V14.01,2013-02-02 10:50:00,
2013-02-02 05:55:00,16.2,12.2,30.29,West,266,0.0,0.0,84,0.00,,---,0.00,VWS V14.01,2013-02-02 10:55:00,
2013-02-02 06:00:00,16.2,12.5,30.29,West,266,0.0,0.0,85,0.00,,---,0.00,VWS V14.01,2013-02-02 11:00:00,
2013-02-02 06:05:00,16.1,12.4,30.29,West,266,0.0,0.0,85,0.00,,---,0.00,VWS V14.01,2013-02-02 11:05:00,
2013-02-02 06:10:00,16.1,12.7,30.29,West,266,0.0,0.0,86,0.00,,---,0.00,VWS V14.01,2013-02-02 11:10:00,
2013-02-02 06:15:00,16.1,12.7,30.29,West,266,0.0,0.0,86,0.00,,---,0.00,VWS V14.01,2013-02-02 11:15:00,
2013-02-02 06:20:00,16.0,12.6,30.29,West,266,0.0,0.0,86,0.00,,---,0.00,VWS V14.01,2013-02-02 11:20:00,
2013-02-02 06:25:00,16.0,12.3,30.29,West,266,0.0,0.0,85,0.00,,---,0.00,VWS V14.01,2013-02-02 11:25:00,
2013-02-02 06:30:00,15.9,12.2,30.30,West,266,0.0,0.0,85,0.00,,---,0.00,VWS V14.01,2013-02-02 11:30:00,
2013-02-02 06:35:00,15.7,12.0,30.29,West,266,0.0,0.0,85,0.00,,---,0.00,VWS V14.01,2013-02-02 11:35:00,
2013-02-02 06:40:00,15.5,11.5,30.29,West,266,0.0,0.0,84,0.00,,---,0.00,VWS V14.01,2013-02-02 11:40:00,
2013-02-02 06:45:00,15.4,11.7,30.29,West,266,0.0,0.0,85,0.00,,---,0.00,VWS V14.01,2013-02-02 11:45:00,
2013-02-02 06:50:00,15.4,12.0,30.29,West,266,0.0,0.0,86,0.00,,---,0.00,VWS V14.01,2013-02-02 11:50:00,
2013-02-02 06:55:00,15.2,11.5,30.29,West,266,0.0,0.0,85,0.00,,---,0.00,VWS V14.01,2013-02-02 11:55:00,
2013-02-02 07:00:00,15.2,11.5,30.29,West,266,0.0,0.0,85,0.00,,---,0.00,VWS V14.01,2013-02-02 12:00:00,
2013-02-02 07:05:00,15.2,11.8,30.29,West,266,0.0,0.0,86,0.00,,---,0.00,VWS V14.01,2013-02-02 12:05:00,
2013-02-02 07:10:00,15.1,11.9,30.29,West,266,0.0,0.0,87,0.00,,---,0.00,VWS V14.01,2013-02-02 12:10:00,
2013-02-02 07:15:00,15.1,11.9,30.29,West,266,0.0,0.0,87,0.00,,---,0.00,VWS V14.01,2013-02-02 12:15:00,
2013-02-02 07:20:00,15.0,11.8,30.29,West,266,0.0,0.0,87,0.00,,---,0.00,VWS V14.01,2013-02-02 12:20:00,
2013-02-02 07:25:00,15.0,11.8,30.30,West,266,0.0,0.0,87,0.00,,---,0.00,VWS V14.01,2013-02-02 12:25:00,
2013-02-02 07:30:00,14.9,11.7,30.30,West,266,0.0,0.0,87,0.00,,---,0.00,VWS V14.01,2013-02-02 12:30:00,
2013-02-02 07:35:00,14.8,11.6,30.30,West,266,0.0,0.0,87,0.00,,---,0.00,VWS V14.01,2013-02-02 12:35:00,
2013-02-02 07:40:00,14.7,11.8,30.30,West,266,0.0,0.0,88,0.00,,---,0.00,VWS V14.01,2013-02-02 12:40:00,
2013-02-02 07:45:00,14.8,11.9,30.30,West,266,0.0,0.0,88,0.00,,---,0.00,VWS V14.01,2013-02-02 12:45:00,
2013-02-02 07:50:00,14.8,12.1,30.30,West,266,0.0,0.0,89,0.00,,---,0.00,VWS V14.01,2013-02-02 12:50:00,
2013-02-02 07:55:00,15.0,12.4,30.30,West,266,0.0,1.0,89,0.00,,---,0.00,VWS V14.01,2013-02-02 12:55:00,
2013-02-02 08:00:00,15.2,12.6,30.30,West,266,0.0,3.0,89,0.00,,---,0.00,VWS V14.01,2013-02-02 13:00:00,
2013-02-02 08:05:00,15.4,13.0,30.31,West,266,0.0,2.0,90,0.00,,---,0.00,VWS V14.01,2013-02-02 13:05:00,
2013-02-02 08:10:00,15.6,13.2,30.30,West,266,0.0,1.0,90,0.00,,---,0.00,VWS V14.01,2013-02-02 13:10:00,
2013-02-02 08:15:00,15.7,13.3,30.31,West,266,0.0,1.0,90,0.00,,---,0.00,VWS V14.01,2013-02-02 13:15:00,
2013-02-02 08:20:00,15.8,13.4,30.30,West,266,0.0,1.0,90,0.00,,---,0.00,VWS V14.01,2013-02-02 13:20:00,
2013-02-02 08:25:00,15.9,13.5,30.31,West,266,0.0,1.0,90,0.00,,---,0.00,VWS V14.01,2013-02-02 13:25:00,
2013-02-02 08:30:00,16.1,13.7,30.31,West,266,0.0,1.0,90,0.00,,---,0.00,VWS V14.01,2013-02-02 13:30:00,
2013-02-02 08:35:00,16.4,14.0,30.31,West,266,0.0,0.0,90,0.00,,---,0.00,VWS V14.01,2013-02-02 13:35:00,
2013-02-02 08:40:00,16.7,14.3,30.30,West,266,0.0,1.0,90,0.00,,---,0.00,VWS V14.01,2013-02-02 13:40:00,
2013-02-02 08:45:00,17.0,14.6,30.30,West,266,1.0,1.0,90,0.00,,---,0.00,VWS V14.01,2013-02-02 13:45:00,
2013-02-02 08:50:00,17.3,14.9,30.30,South,171,2.0,3.0,90,0.00,,---,0.00,VWS V14.01,2013-02-02 13:50:00,
2013-02-02 08:55:00,17.7,15.0,30.30,South,171,0.0,3.0,89,0.00,,---,0.00,VWS V14.01,2013-02-02 13:55:00,
2013-02-02 09:00:00,18.2,15.5,30.30,SSE,154,4.0,4.0,89,0.00,,---,0.00,VWS V14.01,2013-02-02 14:00:00,
2013-02-02 09:05:00,18.8,15.6,30.30,SSW,208,0.0,5.0,87,0.00,,---,0.00,VWS V14.01,2013-02-02 14:05:00,
2013-02-02 09:10:00,19.9,15.3,30.29,SW,215,3.0,4.0,82,0.00,,---,0.00,VWS V14.01,2013-02-02 14:10:00,
2013-02-02 09:15:00,20.7,15.5,30.29,SW,221,1.0,5.0,80,0.00,,---,0.00,VWS V14.01,2013-02-02 14:15:00,
2013-02-02 09:20:00,21.5,15.4,30.29,SSW,210,2.0,4.0,77,0.00,,---,0.00,VWS V14.01,2013-02-02 14:20:00,
2013-02-02 09:25:00,22.3,15.3,30.29,SW,218,3.0,4.0,74,0.00,,---,0.00,VWS V14.01,2013-02-02 14:25:00,
2013-02-02 09:30:00,22.9,14.9,30.29,South,190,3.0,5.0,71,0.00,,---,0.00,VWS V14.01,2013-02-02 14:30:00,
2013-02-02 09:35:00,23.4,14.8,30.28,WSW,250,3.0,5.0,69,0.00,,---,0.00,VWS V14.01,2013-02-02 14:35:00,
2013-02-02 09:40:00,23.8,15.8,30.28,SSW,211,1.0,4.0,71,0.00,,---,0.00,VWS V14.01,2013-02-02 14:40:00,
2013-02-02 09:45:00,24.3,15.6,30.28,South,185,2.0,4.0,69,0.00,,---,0.00,VWS V14.01,2013-02-02 14:45:00,
2013-02-02 09:50:00,24.7,15.7,30.28,SSW,206,3.0,5.0,68,0.00,,---,0.00,VWS V14.01,2013-02-02 14:50:00,
2013-02-02 09:55:00,24.9,15.2,30.28,SSW,212,3.0,6.0,66,0.00,,---,0.00,VWS V14.01,2013-02-02 14:55:00,
2013-02-02 09:59:00,25.1,15.4,30.27,South,182,1.0,5.0,66,0.00,,---,0.00,VWS V14.01,2013-02-02 14:59:00,
2013-02-02 10:04:00,25.3,14.8,30.27,South,187,1.0,5.0,64,0.00,,---,0.00,VWS V14.01,2013-02-02 15:04:00,
2013-02-02 10:09:00,25.5,15.7,30.27,SW,223,4.0,6.0,66,0.00,,---,0.00,VWS V14.01,2013-02-02 15:09:00,
2013-02-02 10:14:00,25.8,15.3,30.27,SSW,202,0.0,6.0,64,0.00,,---,0.00,VWS V14.01,2013-02-02 15:14:00,
2013-02-02 10:19:00,26.0,15.5,30.26,SSE,157,4.0,5.0,64,0.00,,---,0.00,VWS V14.01,2013-02-02 15:19:00,
2013-02-02 10:24:00,26.4,15.5,30.26,SSW,211,1.0,6.0,63,0.00,,---,0.00,VWS V14.01,2013-02-02 15:24:00,
2013-02-02 10:29:00,26.6,15.4,30.26,SSW,205,0.0,3.0,62,0.00,,---,0.00,VWS V14.01,2013-02-02 15:29:00,
2013-02-02 10:34:00,26.8,15.2,30.26,South,191,2.0,4.0,61,0.00,,---,0.00,VWS V14.01,2013-02-02 15:34:00,
2013-02-02 10:39:00,27.0,15.4,30.25,SE,144,6.0,6.0,61,0.00,,---,0.00,VWS V14.01,2013-02-02 15:39:00,
2013-02-02 10:44:00,27.4,15.0,30.25,SE,130,2.0,9.0,59,0.00,,---,0.00,VWS V14.01,2013-02-02 15:44:00,
2013-02-02 10:49:00,27.6,14.8,30.25,SSE,155,5.0,5.0,58,0.00,,---,0.00,VWS V14.01,2013-02-02 15:49:00,
2013-02-02 10:54:00,28.0,14.8,30.25,WNW,282,2.0,7.0,57,0.00,,---,0.00,VWS V14.01,2013-02-02 15:54:00,
2013-02-02 10:59:00,28.5,15.2,30.25,WSW,243,2.0,5.0,57,0.00,,---,0.00,VWS V14.01,2013-02-02 15:59:00,
2013-02-02 11:04:00,29.0,14.9,30.24,SW,227,1.0,5.0,55,0.00,,---,0.00,VWS V14.01,2013-02-02 16:04:00,
2013-02-02 11:09:00,29.3,15.6,30.23,South,173,4.0,6.0,56,0.00,,---,0.00,VWS V14.01,2013-02-02 16:09:00,
2013-02-02 11:14:00,29.7,15.5,30.23,South,177,6.0,8.0,55,0.00,,---,0.00,VWS V14.01,2013-02-02 16:14:00,
2013-02-02 11:19:00,29.9,15.3,30.22,SW,229,4.0,10.0,54,0.00,,---,0.00,VWS V14.01,2013-02-02 16:19:00,
2013-02-02 11:24:00,30.4,15.8,30.22,SW,215,2.0,8.0,54,0.00,,---,0.00,VWS V14.01,2013-02-02 16:24:00,
2013-02-02 11:29:00,31.0,15.9,30.22,SSW,196,4.0,7.0,53,0.00,,---,0.00,VWS V14.01,2013-02-02 16:29:00,
2013-02-02 11:34:00,31.8,16.2,30.21,WSW,255,0.0,7.0,52,0.00,,---,0.00,VWS V14.01,2013-02-02 16:34:00,
2013-02-02 11:39:00,32.4,16.3,30.20,SSW,194,2.0,5.0,51,0.00,,---,0.00,VWS V14.01,2013-02-02 16:39:00,
2013-02-02 11:44:00,32.6,16.5,30.20,SSW,201,4.0,8.0,51,0.00,,---,0.00,VWS V14.01,2013-02-02 16:44:00,
2013-02-02 11:49:00,32.9,15.9,30.19,SW,219,1.0,5.0,49,0.00,,---,0.00,VWS V14.01,2013-02-02 16:49:00,
2013-02-02 11:54:00,33.2,16.1,30.19,SW,220,0.0,10.0,49,0.00,,---,0.00,VWS V14.01,2013-02-02 16:54:00,
2013-02-02 11:59:00,33.4,14.9,30.19,West,273,2.0,4.0,46,0.00,,---,0.00,VWS V14.01,2013-02-02 16:59:00,
2013-02-02 12:04:00,33.7,16.6,30.18,SW,229,1.0,6.0,49,0.00,,---,0.00,VWS V14.01,2013-02-02 17:04:00,
2013-02-02 12:09:00,33.9,15.8,30.18,SW,216,5.0,11.0,47,0.00,,---,0.00,VWS V14.01,2013-02-02 17:09:00,
2013-02-02 12:14:00,33.6,15.5,30.18,SSW,205,4.0,7.0,47,0.00,,---,0.00,VWS V14.01,2013-02-02 17:14:00,
2013-02-02 12:19:00,33.8,16.2,30.17,SSW,194,4.0,7.0,48,0.00,,---,0.00,VWS V14.01,2013-02-02 17:19:00,
2013-02-02 12:24:00,33.7,16.1,30.17,South,173,1.0,5.0,48,0.00,,---,0.00,VWS V14.01,2013-02-02 17:24:00,
2013-02-02 12:29:00,33.5,15.4,30.17,SW,235,4.0,8.0,47,0.00,,---,0.00,VWS V14.01,2013-02-02 17:29:00,
2013-02-02 12:34:00,33.4,15.8,30.17,SW,234,3.0,7.0,48,0.00,,---,0.00,VWS V14.01,2013-02-02 17:34:00,
2013-02-02 12:39:00,33.5,15.9,30.16,WSW,246,5.0,6.0,48,0.00,,---,0.00,VWS V14.01,2013-02-02 17:39:00,
2013-02-02 12:44:00,33.7,16.6,30.16,South,181,0.0,9.0,49,0.00,,---,0.00,VWS V14.01,2013-02-02 17:44:00,
2013-02-02 12:49:00,33.8,16.7,30.15,SSW,198,3.0,5.0,49,0.00,,---,0.00,VWS V14.01,2013-02-02 17:49:00,
2013-02-02 12:54:00,34.1,16.5,30.15,South,188,5.0,8.0,48,0.00,,---,0.00,VWS V14.01,2013-02-02 17:54:00,
2013-02-02 12:59:00,34.2,16.6,30.15,South,184,6.0,10.0,48,0.00,,---,0.00,VWS V14.01,2013-02-02 17:59:00,
2013-02-02 13:04:00,34.1,16.5,30.14,South,180,3.0,11.0,48,0.00,,---,0.00,VWS V14.01,2013-02-02 18:04:00,
2013-02-02 13:09:00,34.1,17.0,30.14,South,182,5.0,8.0,49,0.00,,---,0.00,VWS V14.01,2013-02-02 18:09:00,
2013-02-02 13:14:00,34.1,16.5,30.13,South,171,8.0,8.0,48,0.00,,---,0.00,VWS V14.01,2013-02-02 18:14:00,
2013-02-02 13:19:00,34.0,15.9,30.13,SSW,207,4.0,11.0,47,0.00,,---,0.00,VWS V14.01,2013-02-02 18:19:00,
2013-02-02 13:24:00,33.8,16.2,30.13,SSE,164,3.0,7.0,48,0.00,,---,0.00,VWS V14.01,2013-02-02 18:24:00,
2013-02-02 13:29:00,34.2,17.5,30.13,SSE,159,1.0,5.0,50,0.00,,---,0.00,VWS V14.01,2013-02-02 18:29:00,
2013-02-02 13:34:00,34.4,16.8,30.13,South,178,3.0,8.0,48,0.00,,---,0.00,VWS V14.01,2013-02-02 18:34:00,
2013-02-02 13:39:00,34.4,16.3,30.13,South,177,3.0,5.0,47,0.00,,---,0.00,VWS V14.01,2013-02-02 18:39:00,
2013-02-02 13:44:00,34.5,16.9,30.13,SSW,207,1.0,4.0,48,0.00,,---,0.00,VWS V14.01,2013-02-02 18:44:00,
2013-02-02 13:49:00,34.5,16.4,30.13,SSW,201,3.0,6.0,47,0.00,,---,0.00,VWS V14.01,2013-02-02 18:49:00,
2013-02-02 13:54:00,34.2,16.1,30.13,SSE,163,0.0,2.0,47,0.00,,---,0.00,VWS V14.01,2013-02-02 18:54:00,
2013-02-02 13:59:00,34.1,17.0,30.12,South,189,0.0,3.0,49,0.00,,---,0.00,VWS V14.01,2013-02-02 18:59:00,
2013-02-02 14:04:00,34.1,16.0,30.12,SSW,203,2.0,4.0,47,0.00,,---,0.00,VWS V14.01,2013-02-02 19:04:00,
2013-02-02 14:09:00,34.2,17.0,30.12,SW,226,6.0,8.0,49,0.00,,---,0.00,VWS V14.01,2013-02-02 19:09:00,
2013-02-02 14:14:00,34.3,18.5,30.12,SSW,209,6.0,8.0,52,0.00,,---,0.00,VWS V14.01,2013-02-02 19:14:00,
2013-02-02 14:19:00,34.3,17.6,30.12,SW,222,2.0,6.0,50,0.00,,---,0.00,VWS V14.01,2013-02-02 19:19:00,
2013-02-02 14:24:00,34.2,17.5,30.12,SW,217,0.0,4.0,50,0.00,,---,0.00,VWS V14.01,2013-02-02 19:24:00,
2013-02-02 14:29:00,34.3,18.5,30.12,South,181,5.0,6.0,52,0.00,,---,0.00,VWS V14.01,2013-02-02 19:29:00,
2013-02-02 14:34:00,34.3,18.5,30.11,SW,215,5.0,8.0,52,0.00,,---,0.00,VWS V14.01,2013-02-02 19:34:00,
2013-02-02 14:39:00,34.0,20.0,30.11,SW,219,1.0,7.0,56,0.00,,---,0.00,VWS V14.01,2013-02-02 19:39:00,
2013-02-02 14:44:00,33.8,20.6,30.11,SSE,166,3.0,6.0,58,0.00,,---,0.00,VWS V14.01,2013-02-02 19:44:00,
2013-02-02 14:49:00,33.4,21.4,30.10,South,182,2.0,5.0,61,0.00,,---,0.00,VWS V14.01,2013-02-02 19:49:00,
2013-02-02 14:54:00,33.1,21.9,30.10,SE,126,4.0,9.0,63,0.00,,---,0.00,VWS V14.01,2013-02-02 19:54:00,
2013-02-02 14:59:00,32.7,23.0,30.10,SE,144,1.0,6.0,67,0.00,,---,0.00,VWS V14.01,2013-02-02 19:59:00,
2013-02-02 15:04:00,32.4,23.0,30.10,South,175,3.0,6.0,68,0.00,,---,0.00,VWS V14.01,2013-02-02 20:04:00,
2013-02-02 15:09:00,32.2,22.8,30.10,SSE,159,2.0,4.0,68,0.00,,---,0.00,VWS V14.01,2013-02-02 20:09:00,
2013-02-02 15:14:00,32.2,22.8,30.10,South,174,2.0,6.0,68,0.00,,---,0.00,VWS V14.01,2013-02-02 20:14:00,
2013-02-02 15:19:00,32.3,21.9,30.10,SSE,167,4.0,4.0,65,0.00,,---,0.00,VWS V14.01,2013-02-02 20:19:00,
2013-02-02 15:24:00,32.3,22.2,30.09,SSW,211,4.0,13.0,66,0.00,,---,0.00,VWS V14.01,2013-02-02 20:24:00,
2013-02-02 15:29:00,32.0,22.6,30.09,SSE,157,4.0,6.0,68,0.00,,---,0.00,VWS V14.01,2013-02-02 20:29:00,
2013-02-02 15:34:00,31.7,22.4,30.09,SW,228,0.0,5.0,68,0.00,,---,0.00,VWS V14.01,2013-02-02 20:34:00,
2013-02-02 15:39:00,31.6,22.3,30.09,SW,228,0.0,2.0,68,0.00,,---,0.00,VWS V14.01,2013-02-02 20:39:00,
2013-02-02 15:44:00,31.6,22.3,30.08,SW,225,0.0,2.0,68,0.00,,---,0.00,VWS V14.01,2013-02-02 20:44:00,
2013-02-02 15:49:00,31.6,22.6,30.08,SSE,162,3.0,6.0,69,0.00,,---,0.00,VWS V14.01,2013-02-02 20:49:00,
2013-02-02 15:54:00,31.6,23.0,30.08,SSE,159,0.0,6.0,70,0.00,,---,0.00,VWS V14.01,2013-02-02 20:54:00,
2013-02-02 15:58:00,31.6,23.3,30.08,SSE,164,5.0,5.0,71,0.00,,---,0.00,VWS V14.01,2013-02-02 20:58:00,
2013-02-02 16:03:00,31.7,23.4,30.07,SSE,166,1.0,5.0,71,0.00,,---,0.00,VWS V14.01,2013-02-02 21:03:00,
2013-02-02 16:08:00,31.9,22.5,30.07,SSE,166,0.0,2.0,68,0.00,,---,0.00,VWS V14.01,2013-02-02 21:08:00,
2013-02-02 16:13:00,32.0,22.3,30.07,SSE,166,1.0,3.0,67,0.00,,---,0.00,VWS V14.01,2013-02-02 21:13:00,
2013-02-02 16:18:00,32.1,22.4,30.07,SSE,166,0.0,1.0,67,0.00,,---,0.00,VWS V14.01,2013-02-02 21:18:00,
2013-02-02 16:23:00,32.3,22.6,30.07,SSE,166,2.0,2.0,67,0.00,,---,0.00,VWS V14.01,2013-02-02 21:23:00,
2013-02-02 16:28:00,32.5,21.7,30.06,SE,134,2.0,4.0,64,0.00,,---,0.00,VWS V14.01,2013-02-02 21:28:00,
2013-02-02 16:33:00,32.7,22.2,30.06,SE,134,0.0,2.0,65,0.00,,---,0.00,VWS V14.01,2013-02-02 21:33:00,
2013-02-02 16:38:00,33.0,21.0,30.06,SSE,150,0.0,4.0,61,0.00,,---,0.00,VWS V14.01,2013-02-02 21:38:00,
2013-02-02 16:43:00,33.2,21.6,30.06,SSE,150,0.0,3.0,62,0.00,,---,0.00,VWS V14.01,2013-02-02 21:43:00,
2013-02-02 16:48:00,33.3,22.5,30.06,SSE,150,0.0,0.0,64,0.00,,---,0.00,VWS V14.01,2013-02-02 21:48:00,
2013-02-02 16:53:00,33.3,21.7,30.05,SSE,153,0.0,2.0,62,0.00,,---,0.00,VWS V14.01,2013-02-02 21:53:00,
2013-02-02 16:58:00,33.3,20.9,30.05,South,169,1.0,3.0,60,0.00,,---,0.00,VWS V14.01,2013-02-02 21:58:00,
2013-02-02 17:03:00,33.4,20.6,30.05,South,169,0.0,1.0,59,0.00,,---,0.00,VWS V14.01,2013-02-02 22:03:00,
2013-02-02 17:08:00,33.4,19.8,30.05,South,169,0.0,1.0,57,0.00,,---,0.00,VWS V14.01,2013-02-02 22:08:00,
2013-02-02 17:13:00,33.4,20.2,30.05,SSE,167,4.0,6.0,58,0.00,,---,0.00,VWS V14.01,2013-02-02 22:13:00,
2013-02-02 17:18:00,33.5,19.1,30.05,SSW,196,3.0,4.0,55,0.00,,---,0.00,VWS V14.01,2013-02-02 22:18:00,
2013-02-02 17:23:00,33.6,19.2,30.05,SW,230,7.0,7.0,55,0.00,,---,0.00,VWS V14.01,2013-02-02 22:23:00,
2013-02-02 17:28:00,33.8,18.5,30.05,SSW,204,2.0,7.0,53,0.00,,---,0.00,VWS V14.01,2013-02-02 22:28:00,
2013-02-02 17:33:00,33.8,18.9,30.05,SW,221,1.0,5.0,54,0.00,,---,0.00,VWS V14.01,2013-02-02 22:33:00,
2013-02-02 17:38:00,33.8,19.4,30.05,SSW,194,1.0,3.0,55,0.00,,---,0.00,VWS V14.01,2013-02-02 22:38:00,
2013-02-02 17:43:00,33.7,18.8,30.05,South,182,3.0,4.0,54,0.00,,---,0.00,VWS V14.01,2013-02-02 22:43:00,
2013-02-02 17:48:00,33.5,19.1,30.05,SSW,209,1.0,6.0,55,0.00,,---,0.00,VWS V14.01,2013-02-02 22:48:00,
2013-02-02 17:53:00,33.5,19.1,30.05,SW,215,3.0,5.0,55,0.00,,---,0.00,VWS V14.01,2013-02-02 22:53:00,
2013-02-02 17:58:00,33.4,18.6,30.05,SSE,166,1.0,4.0,54,0.00,,---,0.00,VWS V14.01,2013-02-02 22:58:00,
2013-02-02 18:03:00,33.4,19.0,30.05,SSW,196,2.0,3.0,55,0.00,,---,0.00,VWS V14.01,2013-02-02 23:03:00,
2013-02-02 18:08:00,33.4,18.6,30.04,SSW,200,4.0,7.0,54,0.00,,---,0.00,VWS V14.01,2013-02-02 23:08:00,
2013-02-02 18:13:00,33.6,19.6,30.04,SW,215,2.0,8.0,56,0.00,,---,0.00,VWS V14.01,2013-02-02 23:13:00,
2013-02-02 18:18:00,33.7,19.3,30.04,WSW,237,1.0,4.0,55,0.00,,---,0.00,VWS V14.01,2013-02-02 23:18:00,
2013-02-02 18:23:00,33.7,18.8,30.04,WSW,237,2.0,3.0,54,0.00,,---,0.00,VWS V14.01,2013-02-02 23:23:00,
2013-02-02 18:28:00,33.7,18.8,30.04,WSW,237,1.0,2.0,54,0.00,,---,0.00,VWS V14.01,2013-02-02 23:28:00,
2013-02-02 18:33:00,33.7,18.8,30.04,WSW,237,1.0,1.0,54,0.00,,---,0.00,VWS V14.01,2013-02-02 23:33:00,
2013-02-02 18:38:00,33.6,18.7,30.05,WSW,237,0.0,2.0,54,0.00,,---,0.00,VWS V14.01,2013-02-02 23:38:00,
2013-02-02 18:43:00,33.5,19.1,30.04,SW,225,0.0,9.0,55,0.00,,---,0.00,VWS V14.01,2013-02-02 23:43:00,
2013-02-02 18:48:00,33.5,18.6,30.04,SW,216,1.0,4.0,54,0.00,,---,0.00,VWS V14.01,2013-02-02 23:48:00,
2013-02-02 18:53:00,33.7,18.8,30.04,SW,217,0.0,3.0,54,0.00,,---,0.00,VWS V14.01,2013-02-02 23:53:00,
2013-02-02 18:58:00,33.7,19.3,30.04,SW,217,2.0,2.0,55,0.00,,---,0.00,VWS V14.01,2013-02-02 23:58:00,
2013-02-02 19:03:00,33.7,19.3,30.05,SW,217,0.0,3.0,55,0.00,,---,0.00,VWS V14.01,2013-02-03 00:03:00,
2013-02-02 19:08:00,33.7,19.3,30.04,SW,217,0.0,1.0,55,0.00,,---,0.00,VWS V14.01,2013-02-03 00:08:00,
2013-02-02 19:13:00,33.7,19.3,30.04,SW,217,0.0,3.0,55,0.00,,---,0.00,VWS V14.01,2013-02-03 00:13:00,
2013-02-02 19:18:00,33.7,19.3,30.04,SW,217,0.0,2.0,55,0.00,,---,0.00,VWS V14.01,2013-02-03 00:18:00,
2013-02-02 19:23:00,33.6,20.0,30.04,SW,217,0.0,1.0,57,0.00,,---,0.00,VWS V14.01,2013-02-03 00:23:00,
2013-02-02 19:28:00,33.5,19.9,30.03,SW,217,0.0,1.0,57,0.00,,---,0.00,VWS V14.01,2013-02-03 00:28:00,
2013-02-02 19:33:00,33.5,20.3,30.03,SW,217,2.0,2.0,58,0.00,,---,0.00,VWS V14.01,2013-02-03 00:33:00,
2013-02-02 19:38:00,33.5,20.7,30.02,SW,217,0.0,2.0,59,0.00,,---,0.00,VWS V14.01,2013-02-03 00:38:00,
2013-02-02 19:43:00,33.4,21.0,30.02,SW,217,0.0,1.0,60,0.00,,---,0.00,VWS V14.01,2013-02-03 00:43:00,
2013-02-02 19:48:00,33.1,21.5,30.03,SW,217,2.0,3.0,62,0.00,,---,0.00,VWS V14.01,2013-02-03 00:48:00,
2013-02-02 19:53:00,32.8,22.7,30.03,WSW,254,0.0,3.0,66,0.00,,---,0.00,VWS V14.01,2013-02-03 00:53:00,
2013-02-02 19:58:00,32.5,22.8,30.03,WSW,254,2.0,2.0,67,0.00,,---,0.00,VWS V14.01,2013-02-03 00:58:00,
2013-02-02 20:03:00,32.2,23.2,30.03,WSW,254,0.0,2.0,69,0.00,,---,0.00,VWS V14.01,2013-02-03 01:03:00,
2013-02-02 20:08:00,32.1,23.4,30.03,WSW,254,1.0,1.0,70,0.00,,---,0.00,VWS V14.01,2013-02-03 01:08:00,
2013-02-02 20:13:00,32.0,24.0,30.03,WSW,254,0.0,1.0,72,0.00,,---,0.00,VWS V14.01,2013-02-03 01:13:00,
2013-02-02 20:18:00,31.9,23.9,30.03,WSW,254,0.0,2.0,72,0.00,,---,0.00,VWS V14.01,2013-02-03 01:18:00,
2013-02-02 20:23:00,31.8,24.1,30.02,WSW,254,0.0,1.0,73,0.00,,---,0.00,VWS V14.01,2013-02-03 01:23:00,
2013-02-02 20:28:00,31.7,24.7,30.02,WSW,254,2.0,2.0,75,0.00,,---,0.00,VWS V14.01,2013-02-03 01:28:00,
2013-02-02 20:33:00,31.6,24.6,30.02,WSW,254,1.0,2.0,75,0.00,,---,0.00,VWS V14.01,2013-02-03 01:33:00,
2013-02-02 20:38:00,31.5,24.8,30.02,WSW,254,1.0,2.0,76,0.00,,---,0.00,VWS V14.01,2013-02-03 01:38:00,
2013-02-02 20:43:00,31.4,25.4,30.02,WSW,254,0.0,1.0,78,0.00,,---,0.00,VWS V14.01,2013-02-03 01:43:00,
2013-02-02 20:48:00,31.4,25.4,30.02,WSW,254,0.0,1.0,78,0.00,,---,0.00,VWS V14.01,2013-02-03 01:48:00,
2013-02-02 20:53:00,31.3,25.6,30.02,WSW,254,0.0,2.0,79,0.00,,---,0.00,VWS V14.01,2013-02-03 01:53:00,
2013-02-02 20:58:00,31.2,25.8,30.02,WSW,254,0.0,1.0,80,0.00,,---,0.00,VWS V14.01,2013-02-03 01:58:00,
2013-02-02 21:03:00,31.1,26.0,30.02,WSW,254,0.0,1.0,81,0.00,,---,0.00,VWS V14.01,2013-02-03 02:03:00,
2013-02-02 21:08:00,31.1,26.0,30.02,WSW,254,0.0,1.0,81,0.00,,---,0.00,VWS V14.01,2013-02-03 02:08:00,
2013-02-02 21:13:00,31.1,26.0,30.02,WSW,254,0.0,1.0,81,0.00,,---,0.00,VWS V14.01,2013-02-03 02:13:00,
2013-02-02 21:18:00,31.1,26.0,30.01,WSW,254,0.0,1.0,81,0.00,,---,0.00,VWS V14.01,2013-02-03 02:18:00,
2013-02-02 21:23:00,31.1,26.0,30.02,WSW,254,0.0,2.0,81,0.00,,---,0.00,VWS V14.01,2013-02-03 02:23:00,
2013-02-02 21:28:00,31.0,25.9,30.02,WSW,254,0.0,0.0,81,0.00,,---,0.00,VWS V14.01,2013-02-03 02:28:00,
2013-02-02 21:33:00,31.0,25.9,30.01,WSW,254,0.0,0.0,81,0.00,,---,0.00,VWS V14.01,2013-02-03 02:33:00,
2013-02-02 21:38:00,30.9,25.8,30.01,WSW,254,0.0,1.0,81,0.00,,---,0.00,VWS V14.01,2013-02-03 02:38:00,
2013-02-02 21:43:00,30.7,25.6,30.01,WSW,254,1.0,1.0,81,0.00,,---,0.00,VWS V14.01,2013-02-03 02:43:00,
2013-02-02 21:48:00,30.7,25.6,30.01,WSW,254,0.0,1.0,81,0.00,,---,0.00,VWS V14.01,2013-02-03 02:48:00,
2013-02-02 21:53:00,30.5,25.7,30.02,WSW,254,0.0,0.0,82,0.00,,---,0.00,VWS V14.01,2013-02-03 02:53:00,
2013-02-02 21:58:00,30.5,25.7,30.02,WSW,254,0.0,0.0,82,0.00,,---,0.00,VWS V14.01,2013-02-03 02:58:00,
2013-02-02 22:03:00,30.4,25.6,30.02,WSW,254,0.0,0.0,82,0.00,,---,0.00,VWS V14.01,2013-02-03 03:03:00,
2013-02-02 22:08:00,30.3,25.5,30.02,WSW,254,0.0,1.0,82,0.00,,---,0.00,VWS V14.01,2013-02-03 03:08:00,
2013-02-02 22:13:00,30.3,25.5,30.02,WSW,254,1.0,2.0,82,0.00,,---,0.00,VWS V14.01,2013-02-03 03:13:00,
2013-02-02 22:18:00,30.2,25.7,30.02,WSW,254,0.0,1.0,83,0.00,,---,0.00,VWS V14.01,2013-02-03 03:18:00,
2013-02-02 22:23:00,30.2,25.7,30.01,WSW,254,0.0,0.0,83,0.00,,---,0.00,VWS V14.01,2013-02-03 03:23:00,
2013-02-02 22:28:00,30.2,26.0,30.01,WSW,254,0.0,1.0,84,0.00,,---,0.00,VWS V14.01,2013-02-03 03:28:00,
2013-02-02 22:33:00,30.3,26.1,30.01,WSW,254,1.0,1.0,84,0.00,,---,0.00,VWS V14.01,2013-02-03 03:33:00,
2013-02-02 22:38:00,30.2,26.0,30.01,WSW,254,0.0,1.0,84,0.00,,---,0.00,VWS V14.01,2013-02-03 03:38:00,
2013-02-02 22:43:00,30.2,26.0,30.01,WSW,254,0.0,0.0,84,0.00,,---,0.00,VWS V14.01,2013-02-03 03:43:00,
2013-02-02 22:48:00,30.2,26.0,30.01,WSW,254,0.0,0.0,84,0.00,,---,0.00,VWS V14.01,2013-02-03 03:48:00,
2013-02-02 22:53:00,30.3,26.1,30.00,WSW,254,0.0,1.0,84,0.00,,---,0.00,VWS V14.01,2013-02-03 03:53:00,
2013-02-02 22:57:00,30.3,26.1,30.00,WSW,254,0.0,0.0,84,0.00,,---,0.00,VWS V14.01,2013-02-03 03:57:00,
2013-02-02 23:02:00,30.3,26.1,30.00,WSW,254,0.0,1.0,84,0.00,,---,0.00,VWS V14.01,2013-02-03 04:02:00,
2013-02-02 23:07:00,30.3,26.1,30.00,WSW,254,0.0,0.0,84,0.00,,---,0.00,VWS V14.01,2013-02-03 04:07:00,
2013-02-02 23:12:00,30.3,26.3,30.00,WSW,254,0.0,0.0,85,0.00,,---,0.00,VWS V14.01,2013-02-03 04:12:00,
2013-02-02 23:17:00,30.3,26.3,29.99,WSW,254,0.0,0.0,85,0.00,,---,0.00,VWS V14.01,2013-02-03 04:17:00,
2013-02-02 23:22:00,30.4,26.1,29.99,WSW,254,0.0,0.0,84,0.00,,---,0.00,VWS V14.01,2013-02-03 04:22:00,
2013-02-02 23:27:00,30.4,26.4,29.99,WSW,254,0.0,0.0,85,0.00,,---,0.00,VWS V14.01,2013-02-03 04:27:00,
2013-02-02 23:32:00,30.5,26.5,29.99,WSW,254,0.0,0.0,85,0.00,,---,0.00,VWS V14.01,2013-02-03 04:32:00,
2013-02-02 23:37:00,30.5,26.5,29.98,WSW,254,1.0,1.0,85,0.00,,---,0.00,VWS V14.01,2013-02-03 04:37:00,
2013-02-02 23:42:00,30.4,26.4,29.98,WSW,254,1.0,1.0,85,0.00,,---,0.00,VWS V14.01,2013-02-03 04:42:00,
2013-02-02 23:47:00,30.3,26.3,29.98,WSW,254,0.0,1.0,85,0.00,,---,0.00,VWS V14.01,2013-02-03 04:47:00,
2013-02-02 23:52:00,30.2,26.2,29.98,WSW,254,0.0,0.0,85,0.00,,---,0.00,VWS V14.01,2013-02-03 04:52:00,
2013-02-02 23:57:00,30.2,26.5,29.98,WSW,254,1.0,1.0,86,0.00,,---,0.00,VWS V14.01,2013-02-03 04:57:00,